Inicio METAR Ruta Wind Satelite

Informe Meteorológico

Fecha: 2020/11/30 15:02:33 Local
2020.11.30 20:02 UTC


Estado: VENCIDO
Operación:VFR
Bogota / Eldorado, Colombia (SKBO) 04-43N 074-09W 2548M
Nov 30, 2020 - 02:00 PM EST / 2020.11.30 1900 UTC
Wind: from the ENE (070 degrees) at 10 MPH (9 KT):0
Visibility: greater than 7 mile(s):0
Sky conditions: partly cloudy
Temperature: 66 F (19 C)
Dew Point: 50 F (10 C)
Relative Humidity: 55%
Pressure (altimeter): 30.25 in. Hg (1024 hPa)
ob: SKBO 301900Z 07009KT 9999 SCT020 SCT200 19/10 A3025 NOSIG
cycle: 19

SKBO 301800Z 07009KT 9999 SCT020 SCT200 19/09 A3029 NOSIG
SKBO 301600Z VRB02KT 9999 SCT020 18/09 A3035 NOSIG
SKBO 301500Z 13006KT 9999 BKN020 18/09 A3038 NOSIG
SKBO 301419Z 08007KT 9999 SCT020 SCT200 18/10 A3038 NOSIG
SKBO 301400Z 07009KT 9999 SCT020 SCT200 XX/XX A//// NOSIG

2020/11/30 18:50
TAF SKBO 301630Z 3018/0118 25010KT 9999 BKN017 PROB40
TEMPO 3020/3023 DZRA SCT015TCU
BECMG 0102/0104 VRB03KT FEW017 SCT070 PROB40
TEMPO 0115/0118 DZRA BKN017 TX20/3018Z TN08/0110Z